Latest Coastal Weather Observations for Cape Bruny AWS

IDT60701

Issued at 4:51 pm EST Wednesday 29 July 2015 (issued every 10 minutes, with the page automatically refreshed every 10 minutes)

About coastal observations | Map of coastal stations | Coastal observations for TAS | Marine services | Other Formats
Station Details ID: 094198 Name: CAPE BRUNY (CAPE BRUNY) Lat: -43.49 Lon: 147.14 Height: 59.7 m
Data from the previous 72 hours. | See also: Recent months at Cape Bruny AWS
Date/Time
EST
Temp

°C
Wind Pressure Rain
since 9am
mm
Weather Cloud Vis
km
Sea
Height
m
Swell
Dir
 
Speed
knots
Gust
knots
hPa Trend Height
m
Period
s
Dir
29/04:30pm 9.9 N 6 9 1021.2 - 0.0 - - - - - - -
29/04:00pm 10.1 N 5 8 1021.5 - 0.0 - - - - - - -
29/03:30pm 10.3 N 6 9 1021.8 - 0.0 - - - - - - -
29/03:00pm 10.8 NNW 7 9 1021.8 - 0.0 - - - - - - -
29/02:30pm 10.7 N 7 10 1022.1 - 0.0 - - - - - - -
29/02:00pm 10.7 N 8 10 1022.6 - 0.0 - - - - - - -
29/01:30pm 11.3 N 5 7 1023.0 - 0.0 - - - - - - -
29/01:00pm 11.5 NW 8 11 1023.6 - 0.0 - - - - - - -
29/12:30pm 11.6 NNW 6 10 1023.9 - 0.0 - - - - - - -
29/12:00pm 11.6 NNW 7 9 1024.5 - 0.0 - - - - - - -
29/11:30am 12.0 NNE 7 11 1025.1 - 0.0 - - - - - - -
29/11:00am 12.2 NNW 8 11 1025.5 - 0.0 - - - - - - -
29/10:30am 11.8 NNW 8 11 1025.8 - 0.0 - - - - - - -
29/10:00am 11.6 NNW 7 9 1025.9 - 0.0 - - - - - - -
29/09:30am 11.0 NNW 7 9 1026.1 - 0.0 - - - - - - -
29/09:00am 10.3 N 7 9 1026.3 - 0.0 - - - - - - -
29/08:30am 8.2 N 8 9 1026.5 - 0.0 - - - - - - -
29/08:00am 8.1 N 10 12 1026.3 - 0.0 - - - - - - -
29/07:30am 7.6 N 8 11 1026.1 - 0.0 - - - - - - -
29/07:00am 7.8 N 9 11 1026.1 - 0.0 - - - - - - -
29/06:30am 7.8 N 8 10 1025.8 - 0.0 - - - - - - -
29/06:00am 7.9 N 9 11 1025.9 - 0.0 - - - - - - -
29/05:30am 8.4 NW 8 10 1025.7 - 0.0 - - - - - - -
29/05:00am 9.7 NW 15 20 1025.4 - 0.0 - - - - - - -
29/04:50am 9.3 NW 12 19 1025.3 - 0.0 - - - - - - -
29/04:30am 7.9 N 7 9 1025.5 - 0.0 - - - - - - -
29/04:00am 8.3 N 10 11 1025.5 - 0.0 - - - - - - -
29/03:30am 8.2 N 8 10 1025.6 - 0.0 - - - - - - -
29/03:00am 8.4 N 9 11 1026.0 - 0.0 - - - - - - -
29/02:30am 8.2 N 8 10 1026.0 - 0.0 - - - - - - -
29/02:00am 9.1 NW 8 12 1026.2 - 0.0 - - - - - - -
29/01:30am 9.4 NW 9 11 1026.1 - 0.0 - - - - - - -
29/01:00am 8.1 N 9 11 1026.2 - 0.0 - - - - - - -
29/12:30am 7.8 N 7 7 1026.4 - 0.0 - - - - - - -
29/12:00am 8.5 WNW 2 6 1026.5 - 0.0 - - - - - - -
 
Date/Time
EST
Temp

°C
Wind Pressure Rain
since 9am
mm
Weather Cloud Vis
km
Sea
Height
m
Swell
Dir
 
Speed
knots
Gust
knots
hPa Trend Height
m
Period
s
Dir
28/11:30pm 8.1 WSW 2 5 1026.7 - 0.0 - - - - - - -
28/11:00pm 9.2 W 1 5 1026.7 - 0.0 - - - - - - -
28/10:30pm 9.0 WSW 4 5 1026.6 - 0.0 - - - - - - -
28/10:00pm 9.3 WNW 5 7 1026.6 - 0.0 - - - - - - -
28/09:30pm 9.3 CALM 0 0 1026.6 - 0.0 - - - - - - -
28/09:00pm 9.3 WSW 6 8 1026.4 - 0.0 - - - - - - -
28/08:30pm 9.9 WSW 12 15 1026.1 - 0.0 - - - - - - -
28/08:00pm 10.2 WSW 14 18 1026.0 - 0.0 - - - - - - -
28/07:30pm 10.1 WSW 13 17 1026.0 - 0.0 - - - - - - -
28/07:00pm 10.1 WSW 10 15 1026.0 - 0.0 - - - - - - -
28/06:30pm 10.2 WSW 12 17 1025.7 - 0.0 - - - - - - -
28/06:00pm 10.2 WSW 13 16 1025.5 - 0.0 - - - - - - -
28/05:30pm 10.3 WSW 15 19 1025.2 - 0.0 - - - - - - -
28/05:00pm 10.6 WSW 20 24 1025.0 - 0.0 - - - - - - -
28/04:30pm 10.7 WSW 21 25 1024.7 - 0.0 - - - - - - -
28/04:00pm 10.9 WSW 19 25 1024.6 - 0.0 - - - - - - -
28/03:30pm 11.5 WSW 16 23 1024.6 - 0.0 - - - - - - -
28/03:00pm 11.5 WSW 19 25 1024.3 - 0.0 - - - - - - -
28/02:30pm 11.4 WSW 16 21 1024.1 - 0.0 - - - - - - -
28/02:00pm 11.7 W 12 17 1024.2 - 0.0 - - - - - - -
28/01:30pm 12.4 WSW 9 11 1024.2 - 0.0 - - - - - - -
28/01:00pm 11.8 WSW 9 12 1024.3 - 0.0 - - - - - - -
28/12:30pm 13.1 WSW 5 7 1024.4 - 0.0 - - - - - - -
28/12:00pm 12.3 WNW 7 8 1024.7 - 0.0 - - - - - - -
28/11:30am 12.8 W 9 13 1024.9 - 0.0 - - - - - - -
28/11:00am 12.8 W 9 11 1025.0 - 0.0 - - - - - - -
28/10:30am 11.4 W 13 18 1024.9 - 0.0 - - - - - - -
28/10:00am 11.4 W 14 19 1024.7 - 0.0 - - - - - - -
28/09:30am 10.5 W 15 18 1024.5 - 0.0 - - - - - - -
28/09:00am 10.3 W 13 18 1024.3 - 2.4 - - - - - - -
28/08:30am 10.1 W 13 18 1024.2 - 2.4 - - - - - - -
28/08:00am 9.7 W 17 23 1023.7 - 2.4 - - - - - - -
28/07:30am 9.5 WSW 18 23 1023.2 - 2.4 - - - - - - -
28/07:00am 9.4 W 16 21 1023.0 - 2.4 - - - - - - -
28/06:30am 9.6 W 17 23 1022.6 - 2.4 - - - - - - -
28/06:00am 9.2 WSW 19 24 1022.4 - 2.4 - - - - - - -
28/05:30am 9.4 W 16 25 1022.2 - 2.4 - - - - - - -
28/05:00am 9.4 W 19 24 1021.8 - 2.4 - - - - - - -
28/04:30am 9.2 W 21 27 1021.6 - 2.4 - - - - - - -
28/04:00am 8.8 W 22 29 1021.2 - 2.4 - - - - - - -
28/03:31am 8.8 W 23 34 1020.9 - 2.2 - - - - - - -
28/03:30am 8.8 W 22 31 1020.9 - 2.2 - - - - - - -
28/03:09am 8.8 W 10 27 1021.2 - 2.2 - - - - - - -
28/03:00am 8.7 WSW 4 7 1021.2 - 2.0 - - - - - - -
28/02:30am 8.5 WNW 7 10 1021.2 - 2.0 - - - - - - -
28/02:00am 8.5 WNW 11 15 1020.8 - 2.0 - - - - - - -
28/01:30am 8.7 W 16 19 1020.7 - 2.0 - - - - - - -
28/01:00am 9.2 W 17 23 1020.4 - 1.8 - - - - - - -
28/12:30am 9.1 WSW 20 25 1020.3 - 1.8 - - - - - - -
28/12:00am 10.1 W 22 30 1020.1 - 1.8 - - - - - - -
 
Date/Time
EST
Temp

°C
Wind Pressure Rain
since 9am
mm
Weather Cloud Vis
km
Sea
Height
m
Swell
Dir
 
Speed
knots
Gust
knots
hPa Trend Height
m
Period
s
Dir
27/11:53pm 9.9 W 20 30 1020.0 - 1.8 - - - - - - -
27/11:30pm 9.9 W 22 29 1020.1 - 1.8 - - - - - - -
27/11:00pm 9.7 W 22 27 1020.0 - 1.8 - - - - - - -
27/10:30pm 9.7 W 20 26 1020.0 - 1.8 - - - - - - -
27/10:00pm 9.7 W 22 27 1019.7 - 1.8 - - - - - - -
27/09:30pm 9.7 W 22 29 1019.5 - 1.8 - - - - - - -
27/09:00pm 9.7 W 20 26 1019.2 - 1.8 - - - - - - -
27/08:30pm 9.6 W 21 27 1019.1 - 1.8 - - - - - - -
27/08:00pm 9.6 W 20 25 1018.8 - 1.8 - - - - - - -
27/07:30pm 9.6 W 22 27 1018.6 - 1.8 - - - - - - -
27/07:00pm 9.7 W 22 27 1018.3 - 1.8 - - - - - - -
27/06:30pm 9.5 W 21 28 1017.9 - 1.8 - - - - - - -
27/06:00pm 9.3 W 21 28 1017.6 - 1.8 - - - - - - -
27/05:30pm 9.3 W 22 30 1017.1 - 1.8 - - - - - - -
27/05:03pm 9.0 W 23 33 1016.8 - 1.8 - - - - - - -
27/05:00pm 9.2 W 23 29 1016.8 - 1.8 - - - - - - -
27/04:30pm 9.0 W 23 29 1016.6 - 1.8 - - - - - - -
27/04:11pm 8.4 WSW 21 31 1016.5 - 1.6 - - - - - - -
27/04:00pm 8.8 WSW 21 27 1016.6 - 1.4 - - - - - - -
27/03:30pm 8.8 WSW 25 35 1016.2 - 0.6 - - - - - - -
27/03:06pm 8.6 W 24 34 1016.0 - 0.4 - - - - - - -
27/03:00pm 8.8 W 24 32 1015.9 - 0.2 Rain - - - - - -
27/02:30pm 9.8 W 25 33 1015.5 - 0.0 - - - - - - -
27/02:00pm 10.2 WSW 25 32 1015.3 - 0.0 - - - - - - -
27/01:30pm 10.4 WSW 27 37 1014.8 - 0.0 - - - - - - -
27/01:00pm 10.8 W 26 36 1014.7 - 0.0 - - - - - - -
27/12:52pm 10.3 W 24 36 1014.7 - 0.0 - - - - - - -
27/12:30pm 10.3 W 22 29 1014.8 - 0.0 - - - - - - -
27/12:00pm 9.8 W 23 32 1014.7 - 0.0 - - - - - - -
27/11:30am 9.9 W 22 31 1014.9 - 0.0 - - - - - - -
27/11:00am 9.4 WSW 25 32 1015.0 - 0.0 - - - - - - -
27/10:30am 7.7 W 22 29 1014.9 - 0.0 - - - - - - -
27/10:00am 8.2 WSW 20 28 1014.7 - 0.0 - - - - - - -
27/09:30am 8.1 W 23 31 1014.7 - 0.0 - - - - - - -
27/09:00am 8.1 WSW 26 36 1014.4 - 7.8 - - - - - - -
27/08:55am 8.0 WSW 26 36 1014.2 - 7.8 - - - - - - -
27/08:30am 8.3 WSW 27 35 1013.8 - 7.8 - - - - - - -
27/08:09am 7.9 WSW 23 33 1013.8 - 7.8 - - - - - - -
27/08:00am 7.5 WSW 23 31 1013.7 - 7.8 - - - - - - -
27/07:41am 6.6 WSW 25 35 1013.6 - 7.8 - - - - - - -
27/07:30am 7.5 WSW 24 32 1013.4 - 7.8 - - - - - - -
27/07:05am 7.5 WSW 31 41 1012.9 - 7.8 - - - - - - -
27/07:00am 7.5 WSW 32 41 1012.7 - 7.8 - - - - - - -
27/06:30am 6.6 WSW 32 43 1012.2 - 7.6 - - - - - - -
27/06:00am 6.2 WSW 31 46 1011.7 - 7.4 Recent precip. - - - - - -
27/05:30am 7.5 WSW 33 46 1011.2 - 7.2 - - - - - - -
27/05:11am 6.8 WSW 30 44 1011.2 - 7.2 - - - - - - -
27/05:00am 7.0 WSW 28 37 1011.0 - 7.2 - - - - - - -
27/04:53am 6.5 WSW 26 38 1010.9 - 7.2 - - - - - - -
27/04:48am 6.5 WSW 29 39 1011.0 - 7.2 - - - - - - -
27/04:36am 6.7 WSW 34 44 1010.7 - 7.2 - - - - - - -
27/04:30am 6.7 WSW 36 44 1010.5 - 7.2 - - - - - - -
27/04:00am 6.9 WSW 35 48 1009.7 - 7.2 - - - - - - -
27/03:30am 5.8 W 35 46 1009.5 - 7.0 - - - - - - -
27/03:00am 5.9 W 33 47 1009.4 - 7.0 - - - - - - -
27/02:55am 5.8 WSW 36 47 1009.5 - 7.0 - - - - - - -
27/02:51am 5.9 WSW 35 47 1009.4 - 7.0 - - - - - - -
27/02:30am 6.6 WSW 30 43 1009.4 - 7.0 - - - - - - -
27/02:27am 6.3 W 30 43 1009.1 - 7.0 - - - - - - -
27/02:26am 6.4 W 29 43 1009.1 - 7.0 - - - - - - -
27/02:00am 5.5 WSW 35 48 1008.7 - 7.0 - - - - - - -
27/01:30am 6.3 WSW 36 47 1007.3 - 6.8 - - - - - - -
27/01:00am 5.6 W 30 41 1007.0 - 6.8 - - - - - - -
27/12:44am 6.4 W 31 43 1006.6 - 6.8 - - - - - - -
27/12:43am 6.2 WSW 32 43 1006.6 - 6.8 - - - - - - -
27/12:30am 6.0 WSW 40 52 1006.3 - 6.8 - - - - - - -
27/12:21am 6.4 WSW 35 47 1005.7 - 6.8 - - - - - - -
27/12:19am 6.6 WSW 36 47 1005.7 - 6.8 - - - - - - -
27/12:01am 5.8 WSW 42 52 1005.1 - 6.8 - - - - - - -
27/12:00am 5.9 WSW 43 52 1005.1 - 6.8 Recent precip. - - - - - -
 
Date/Time
EST
Temp

°C
Wind Pressure Rain
since 9am
mm
Weather Cloud Vis
km
Sea
Height
m
Swell
Dir
 
Speed
knots
Gust
knots
hPa Trend Height
m
Period
s
Dir
26/11:30pm 6.2 WSW 37 50 1004.5 - 6.4 - - - - - - -
26/11:00pm 5.8 WSW 39 53 1003.8 - 5.8 - - - - - - -
26/10:53pm 6.4 WSW 35 53 1003.2 - 5.8 - - - - - - -
26/10:30pm 6.8 WSW 37 50 1003.3 - 5.6 - - - - - - -
26/10:00pm 6.4 WSW 44 56 1001.9 - 5.6 - - - - - - -
26/09:30pm 7.1 WSW 41 52 1001.2 - 5.4 - - - - - - -
26/09:00pm 7.7 WSW 42 56 1000.5 - 5.4 Recent precip. - - - - - -
26/08:30pm 7.6 WSW 42 59 999.4 - 5.4 - - - - - - -
26/08:00pm 7.2 WSW 39 50 998.6 - 5.2 - - - - - - -
26/07:30pm 7.4 W 37 49 997.1 - 4.4 - - - - - - -
26/07:01pm 6.7 WSW 43 61 996.4 - 4.2 - - - - - - -
26/07:00pm 6.5 WSW 44 61 996.4 - 4.2 - - - - - - -
26/06:57pm 7.2 WSW 41 61 996.1 - 4.0 - - - - - - -
26/06:30pm 8.3 WSW 38 51 995.2 - 4.0 - - - - - - -
26/06:00pm 7.9 WSW 36 47 994.2 - 3.8 Recent precip. - - - - - -
26/05:30pm 7.4 W 32 42 993.6 - 3.2 - - - - - - -
26/05:03pm 7.1 W 37 47 992.6 - 2.6 - - - - - - -
26/05:00pm 7.4 W 36 45 992.4 - 2.2 - - - - - - -
26/04:57pm 7.1 W 35 45 992.2 - 2.2 - - - - - - -

Other Formats:

Comma delimited format used in spreadsheet applications
http://www.bom.gov.au/fwo/IDT60701/IDT60701.95967.axf

JavaScript Object Notation format (JSON) in row-major order
http://www.bom.gov.au/fwo/IDT60701/IDT60701.95967.json